Canadian's Hourly Summary for Saturday, March 18, 2017
Hour Temp
(f)
RH
(%)
Solar Rad.
(MJ/m2)
Rainfall
(in)
Wind
(mph)
3/18/2017 12:00 AM 52 52 0 0 1.05
3/18/2017 1:00 AM 50 54 0 0 1.22
3/18/2017 2:00 AM 46 60 0 0 0.09
3/18/2017 3:00 AM 44 69 0 0 0.01
3/18/2017 4:00 AM 46 69 0 0 0.14
3/18/2017 5:00 AM 47 63 0 0 0.03
3/18/2017 6:00 AM 44 66 0 0 0.15
3/18/2017 7:00 AM 42 75 0 0 0.41
3/18/2017 8:00 AM 42 72 0.01 0 0.02
3/18/2017 9:00 AM 45 60 0.15 0 0.82
3/18/2017 10:00 AM 51 46 0.44 0 1.24
3/18/2017 11:00 AM 58 42 0.89 0 3.92
3/18/2017 12:00 PM 62 40 1 0 4.66
3/18/2017 1:00 PM 67 42 1.62 0 5.41
3/18/2017 2:00 PM 72 41 2.69 0 5.93
3/18/2017 3:00 PM 78 39 2.67 0 7.3
3/18/2017 4:00 PM 80 36 2.41 0 7.55
3/18/2017 5:00 PM 82 36 1.97 0 7.55
3/18/2017 6:00 PM 82 35 1.45 0 7.76
3/18/2017 7:00 PM 81 34 0.76 0 8.32
3/18/2017 8:00 PM 77 38 0.11 0 4.98
3/18/2017 9:00 PM 67 44 0 0 0.55
3/18/2017 10:00 PM 62 58 0 0 0.03
3/18/2017 11:00 PM 62 61 0 0 2.17
Data Summary 59 51 16.17 0.00 2.97